Terminal Aerodrome Forecast
Issued by NWS Grand Forks, ND

Home | Current Version | Previous Version | Text Only | Print | Product List | Glossary Off
Versions: 1 2 3 4 5 6 7 8 9 10 11 12 13 14 15 16 17

539
FTUS43 KFGF 191735 AAA
TAFGFK
TAF AMD
KGFK 191735Z 1918/2018 17011KT P6SM OVC080
     FM192300 19009KT P6SM SCT100
     FM200200 19005KT P6SM FEW200
     FM201000 26004KT P6SM FEW250=

USA.gov is the U.S. government's official web portal to all federal, state and local government web resources and services.